KPVW/PVW METAR and TAF weather

Enter ICAO airport designator
Station Type Date Time Source
KPVW METAR 2018/12/10 13:35 UTC NOAA

KPVW 101335Z AUTO 27006KT 7SM CLR M04/M05 A3032 RMK AO2 T10421055


Station Type Date Time Source
KPVW Decoded METAR 2018/12/10 13:35 UTC NOAA

Plainview, Hale County Airport, TX, United States (KPVW) 34-10-05N 101-43-02W
Dec 10, 2018 - 08:35 AM EST / 2018.12.10 1335 UTC
Wind: from the W (270 degrees) at 7 MPH (6 KT):0
Visibility: 7 mile(s):0
Sky conditions: clear
Temperature: 24.4 F (-4.2 C)
Windchill: 15 F (-9 C):1
Dew Point: 22.1 F (-5.5 C)
Relative Humidity: 90%
Pressure (altimeter): 30.32 in. Hg (1026 hPa)
ob: KPVW 101335Z AUTO 27006KT 7SM CLR M04/M05 A3032 RMK AO2 T10421055
cycle: 13

Station Type Date Time Source
KPVW TAF 2018/12/10 12:27 UTC NOAA

TAF KPVW 101124Z 1012/1112 28006KT P6SM FEW250


Example: see airport list